Time;durP1;ratioP1;P1;durP2;ratioP2;P2;SDS_P1;SDS_P2;PMS_P1;PMS_P2;Temp;Humidity;BMP_temperature;BMP_pressure;BME280_temperature;BME280_humidity;BME280_pressure;Samples;Min_cycle;Max_cycle;Signal;HPM_P1;HPM_P2
2021/04/30 00:02:10;;;;;;;11.55;9.00;;;;;;;11.72;63.90;99193.10;129926;1101;22574;-60
2021/04/30 00:04:38;;;;;;;10.88;8.63;;;;;;;11.70;64.07;99185.19;130031;1101;22575;-59
2021/04/30 00:07:06;;;;;;;13.47;9.07;;;;;;;11.69;64.19;99187.09;129988;1101;23647;-59
2021/04/30 00:09:36;;;;;;;10.48;9.03;;;;;;;11.68;64.21;99182.76;130044;1101;22567;-60
2021/04/30 00:12:04;;;;;;;12.78;8.90;;;;;;;11.71;64.31;99184.09;129998;1101;23481;-60
2021/04/30 00:14:34;;;;;;;12.80;8.78;;;;;;;11.72;64.83;99190.38;129992;1101;22592;-60
2021/04/30 00:17:02;;;;;;;11.78;9.13;;;;;;;11.72;64.78;99190.38;130030;1101;22521;-60
2021/04/30 00:19:31;;;;;;;11.00;8.40;;;;;;;11.71;64.53;99186.83;129962;1101;22697;-60
2021/04/30 00:21:58;;;;;;;12.53;8.88;;;;;;;11.75;64.39;99187.10;130011;1101;22525;-60
2021/04/30 00:24:27;;;;;;;10.80;8.60;;;;;;;11.75;64.42;99190.65;129932;1101;22581;-60
2021/04/30 00:26:55;;;;;;;11.10;8.15;;;;;;;11.76;64.81;99181.41;126638;1097;26207;-60
2021/04/30 00:29:23;;;;;;;13.05;8.93;;;;;;;11.78;64.54;99183.86;129940;1101;23018;-60
2021/04/30 00:31:52;;;;;;;10.60;8.50;;;;;;;11.79;64.48;99180.86;130024;1101;22526;-60
2021/04/30 00:34:20;;;;;;;15.08;9.03;;;;;;;11.81;64.51;99183.32;129952;1100;22591;-60
2021/04/30 00:36:48;;;;;;;22.95;8.88;;;;;;;11.80;64.71;99182.50;130041;1101;22530;-60
2021/04/30 00:39:16;;;;;;;11.40;9.20;;;;;;;11.81;64.54;99180.59;129977;1101;22693;-59
2021/04/30 00:41:44;;;;;;;11.05;9.08;;;;;;;11.79;64.64;99172.67;130040;1101;22549;-60
2021/04/30 00:44:12;;;;;;;10.45;8.70;;;;;;;11.82;64.63;99179.50;129983;1101;22593;-59
2021/04/30 00:46:40;;;;;;;11.45;8.53;;;;;;;11.84;64.64;99171.83;130023;1101;22626;-59
2021/04/30 00:49:08;;;;;;;9.38;7.60;;;;;;;11.85;64.72;99176.20;129973;1100;22591;-60
2021/04/30 00:51:36;;;;;;;9.88;8.10;;;;;;;11.85;64.71;99179.75;130018;1101;22603;-60
2021/04/30 00:54:05;;;;;;;9.70;7.63;;;;;;;11.88;64.66;99172.92;129956;1101;22693;-59
2021/04/30 00:56:33;;;;;;;12.93;7.65;;;;;;;11.90;64.75;99177.02;130014;1101;22559;-57
2021/04/30 00:59:01;;;;;;;10.40;7.75;;;;;;;11.93;64.65;99175.66;130026;1101;23345;-58
2021/04/30 01:01:29;;;;;;;11.00;8.33;;;;;;;11.92;64.73;99165.83;129919;1101;22597;-58
2021/04/30 01:03:57;;;;;;;12.65;9.13;;;;;;;11.93;64.60;99170.20;129959;1101;22628;-58
2021/04/30 01:06:25;;;;;;;11.40;8.30;;;;;;;11.93;64.62;99170.20;130003;1101;22616;-58
2021/04/30 01:08:53;;;;;;;11.88;8.28;;;;;;;11.92;64.75;99161.19;130008;1100;22618;-58
2021/04/30 01:11:21;;;;;;;10.13;8.48;;;;;;;11.93;64.71;99162.02;129998;1101;22547;-58
2021/04/30 01:13:49;;;;;;;10.13;8.78;;;;;;;11.93;64.63;99162.02;129995;1101;22568;-58
2021/04/30 01:16:16;;;;;;;12.83;9.03;;;;;;;11.91;64.84;99156.82;129975;1100;23526;-57
2021/04/30 01:18:46;;;;;;;12.00;8.48;;;;;;;11.90;64.83;99149.72;130015;1101;22513;-57
2021/04/30 01:21:14;;;;;;;10.90;8.38;;;;;;;11.89;64.53;99153.55;129967;1101;22538;-58
2021/04/30 01:23:46;;;;;;;12.75;8.53;;;;;;;11.89;64.68;99147.27;130019;1101;23397;-58
2021/04/30 01:26:15;;;;;;;10.45;8.93;;;;;;;11.89;64.84;99145.36;129959;1101;23780;-58
2021/04/30 01:28:43;;;;;;;10.58;8.83;;;;;;;11.89;64.72;99150.00;129978;1101;22572;-58
2021/04/30 01:31:11;;;;;;;10.83;8.53;;;;;;;11.89;64.72;99159.01;129966;1101;22641;-58
2021/04/30 01:33:39;;;;;;;9.60;8.05;;;;;;;11.92;64.73;99152.18;130003;1101;23068;-58
2021/04/30 01:36:07;;;;;;;9.93;7.65;;;;;;;11.91;64.94;99145.91;130025;1100;22635;-60
2021/04/30 01:38:35;;;;;;;10.33;8.43;;;;;;;11.92;64.73;99152.18;129990;1100;22597;-59
2021/04/30 01:41:03;;;;;;;11.75;8.85;;;;;;;11.92;64.63;99150.27;129954;1101;23785;-60
2021/04/30 01:43:31;;;;;;;10.40;7.80;;;;;;;11.92;64.65;99142.08;130035;1101;22604;-59
2021/04/30 01:46:04;;;;;;;11.63;8.40;;;;;;;11.93;64.66;99142.90;129974;1100;23126;-60
2021/04/30 01:48:33;;;;;;;13.00;8.20;;;;;;;11.92;64.73;99135.80;130042;1101;22608;-60
2021/04/30 01:51:02;;;;;;;12.10;8.73;;;;;;;11.91;64.67;99134.98;130006;1101;23379;-60
2021/04/30 01:53:32;;;;;;;13.83;9.18;;;;;;;11.90;64.74;99127.88;129960;1101;22566;-60
2021/04/30 01:56:01;;;;;;;11.78;9.28;;;;;;;11.89;64.80;99130.89;129984;1101;22556;-60
2021/04/30 01:58:29;;;;;;;11.45;8.98;;;;;;;11.87;64.82;99127.61;129967;1101;22552;-60
2021/04/30 02:00:58;;;;;;;10.25;9.13;;;;;;;11.84;64.92;99126.25;130038;1101;23358;-60
2021/04/30 02:03:26;;;;;;;10.90;9.00;;;;;;;11.81;65.07;99120.55;130006;1101;22553;-60
2021/04/30 02:05:54;;;;;;;14.53;8.55;;;;;;;11.78;65.22;99126.55;130004;1101;22572;-60
2021/04/30 02:08:22;;;;;;;10.35;8.88;;;;;;;11.77;65.20;99124.91;129986;1101;22530;-60
2021/04/30 02:10:54;;;;;;;11.18;7.93;;;;;;;11.77;65.08;99122.18;129979;1101;22622;-60
2021/04/30 02:13:22;;;;;;;11.18;7.70;;;;;;;11.76;65.16;99117.81;129979;1101;22774;-60
2021/04/30 02:15:54;;;;;;;9.35;8.03;;;;;;;11.74;65.27;99114.50;129994;1101;22517;-60
2021/04/30 02:18:23;;;;;;;16.23;9.00;;;;;;;11.72;65.46;99111.23;129986;1101;22741;-59
2021/04/30 02:20:51;;;;;;;11.53;8.55;;;;;;;11.70;65.37;99112.31;129998;1101;22555;-60
2021/04/30 02:23:19;;;;;;;9.98;8.25;;;;;;;11.70;65.18;99104.13;129948;1100;23484;-60
2021/04/30 02:25:47;;;;;;;11.18;8.15;;;;;;;11.70;65.49;99103.31;130067;1101;22525;-60
2021/04/30 02:28:15;;;;;;;11.08;8.83;;;;;;;11.68;65.42;99098.16;130023;1101;22680;-60
2021/04/30 02:30:43;;;;;;;10.28;8.68;;;;;;;11.66;65.36;99105.80;130012;1101;22622;-60
2021/04/30 02:33:12;;;;;;;12.33;8.65;;;;;;;11.64;65.37;99116.16;129987;1101;22596;-60
2021/04/30 02:35:44;;;;;;;12.55;9.48;;;;;;;11.62;65.72;99114.80;130016;1101;22773;-59
2021/04/30 02:38:12;;;;;;;11.75;9.03;;;;;;;11.59;65.90;99115.34;129979;1100;22705;-60
2021/04/30 02:40:41;;;;;;;11.10;8.93;;;;;;;11.58;65.88;99119.16;129987;1101;22560;-60
2021/04/30 02:43:12;;;;;;;15.30;8.40;;;;;;;11.57;65.70;99117.52;130005;1101;22621;-60
2021/04/30 02:45:40;;;;;;;9.43;8.23;;;;;;;11.57;65.86;99112.06;129999;1101;22624;-60
2021/04/30 02:48:13;;;;;;;10.98;8.83;;;;;;;11.57;65.90;99117.52;129980;1101;22693;-60
2021/04/30 02:50:42;;;;;;;9.75;7.58;;;;;;;11.57;65.98;99115.61;129979;1101;22668;-60
2021/04/30 02:53:10;;;;;;;10.68;8.10;;;;;;;11.59;65.96;99110.70;130042;1101;22625;-60
2021/04/30 02:55:38;;;;;;;11.00;8.05;;;;;;;11.60;66.03;99117.80;129992;1101;22559;-60
2021/04/30 02:58:06;;;;;;;11.00;8.10;;;;;;;11.61;66.01;99119.44;130020;1101;22595;-60
2021/04/30 03:00:34;;;;;;;10.00;8.00;;;;;;;11.61;66.01;99121.34;129992;1101;23458;-60
2021/04/30 03:03:02;;;;;;;12.40;7.88;;;;;;;11.62;65.93;99115.62;130022;1101;22600;-60
2021/04/30 03:05:31;;;;;;;10.35;7.60;;;;;;;11.61;65.77;99119.44;129975;1100;22526;-60
2021/04/30 03:07:59;;;;;;;9.40;7.28;;;;;;;11.60;65.94;99119.70;130040;1100;22552;-60
2021/04/30 03:10:27;;;;;;;12.90;7.90;;;;;;;11.59;65.83;99109.88;129958;1101;22612;-60
2021/04/30 03:12:55;;;;;;;10.45;8.13;;;;;;;11.59;65.79;99118.89;130036;1100;22583;-60
2021/04/30 03:15:23;;;;;;;10.05;7.85;;;;;;;11.59;65.72;99113.43;129998;1100;23384;-60
2021/04/30 03:17:51;;;;;;;11.58;8.18;;;;;;;11.60;65.89;99122.44;130051;1100;22555;-60
2021/04/30 03:20:20;;;;;;;9.98;7.08;;;;;;;11.59;65.96;99123.52;130016;1100;22554;-60
2021/04/30 03:22:48;;;;;;;11.93;7.80;;;;;;;11.59;65.96;99121.62;129994;1100;22586;-60
2021/04/30 03:25:16;;;;;;;8.03;6.63;;;;;;;11.61;65.80;99124.89;130009;1100;23562;-59
2021/04/30 03:27:44;;;;;;;10.10;7.08;;;;;;;11.63;65.78;99119.98;130014;1100;22528;-60
2021/04/30 03:30:13;;;;;;;9.73;7.38;;;;;;;11.65;65.73;99125.98;130031;1100;23583;-59
2021/04/30 03:32:41;;;;;;;9.08;6.85;;;;;;;11.65;65.60;99115.08;130025;1101;22540;-60
2021/04/30 03:35:10;;;;;;;10.35;6.93;;;;;;;11.66;65.56;99121.35;130019;1101;22527;-60
2021/04/30 03:37:38;;;;;;;11.40;7.13;;;;;;;11.66;65.47;99124.08;130022;1101;22540;-60
2021/04/30 03:40:06;;;;;;;8.70;7.48;;;;;;;11.65;65.59;99120.53;129987;1101;23175;-60
2021/04/30 03:42:34;;;;;;;7.98;6.20;;;;;;;11.67;65.57;99117.53;130012;1101;22623;-60
2021/04/30 03:45:02;;;;;;;33.05;7.85;;;;;;;11.67;65.35;99103.89;130040;1101;23254;-60
2021/04/30 03:47:31;;;;;;;10.58;6.88;;;;;;;11.70;65.13;99109.59;129944;1101;22665;-60
2021/04/30 03:50:00;;;;;;;9.30;7.00;;;;;;;11.73;65.45;99121.88;130011;1101;22541;-60
2021/04/30 03:52:28;;;;;;;10.83;6.73;;;;;;;11.75;64.89;99116.96;129993;1101;23225;-60
2021/04/30 03:54:55;;;;;;;8.63;7.15;;;;;;;11.79;64.85;99117.27;130009;1101;23841;-60
2021/04/30 03:57:23;;;;;;;8.18;6.35;;;;;;;11.80;64.67;99119.72;129994;1101;22618;-60
2021/04/30 03:59:51;;;;;;;9.65;5.95;;;;;;;11.83;64.91;99116.42;130030;1101;23333;-60
2021/04/30 04:02:19;;;;;;;11.68;6.93;;;;;;;11.85;64.63;99106.05;129981;1101;22633;-60
2021/04/30 04:04:47;;;;;;;10.43;6.88;;;;;;;11.87;64.53;99111.23;130042;1101;22587;-60
2021/04/30 04:07:15;;;;;;;6.98;5.30;;;;;;;11.88;64.56;99105.50;129993;1101;22568;-60
2021/04/30 04:09:43;;;;;;;7.80;6.03;;;;;;;11.88;64.53;99105.50;130014;1100;22565;-60
2021/04/30 04:12:11;;;;;;;8.85;6.18;;;;;;;11.92;64.39;99108.50;129960;1100;22533;-60
2021/04/30 04:14:40;;;;;;;11.10;6.35;;;;;;;11.94;64.08;99103.59;130011;1101;23452;-60
2021/04/30 04:17:08;;;;;;;10.10;5.73;;;;;;;11.95;64.10;99105.23;126194;1093;22918;-59
2021/04/30 04:19:53;;;;;;;8.30;6.28;;;;;;;11.95;64.12;99108.77;130004;1101;23405;-59
2021/04/30 04:22:22;;;;;;;10.08;6.50;;;;;;;11.98;63.83;99107.38;130007;1101;22556;-60
2021/04/30 04:24:50;;;;;;;9.10;6.28;;;;;;;12.02;63.84;99108.47;130018;1101;22506;-59
2021/04/30 04:27:23;;;;;;;8.28;6.03;;;;;;;12.08;63.71;99103.81;130000;1101;23068;-60
2021/04/30 04:29:51;;;;;;;7.65;6.05;;;;;;;12.14;63.96;99089.03;130029;1101;22618;-59
2021/04/30 04:32:19;;;;;;;8.13;6.13;;;;;;;12.20;63.55;99098.86;129992;1101;22526;-60
2021/04/30 04:34:47;;;;;;;11.88;6.20;;;;;;;12.26;63.39;99084.09;130021;1101;22615;-60
2021/04/30 04:37:15;;;;;;;8.80;5.20;;;;;;;12.32;63.27;99093.89;130017;1101;22583;-60
2021/04/30 04:39:42;;;;;;;17.15;7.20;;;;;;;12.42;63.15;99090.28;129991;1101;22557;-60
2021/04/30 04:42:10;;;;;;;9.18;5.93;;;;;;;12.49;63.11;99088.89;130015;1101;22649;-59
2021/04/30 04:44:39;;;;;;;7.80;6.03;;;;;;;12.57;62.72;99082.01;129939;1101;22619;-60
2021/04/30 04:47:07;;;;;;;9.18;5.85;;;;;;;12.63;62.71;99084.45;126284;1101;22817;-60
2021/04/30 04:49:36;;;;;;;13.70;6.35;;;;;;;12.72;62.75;99087.39;130014;1101;23175;-60
2021/04/30 04:52:04;;;;;;;9.10;6.45;;;;;;;12.79;62.52;99087.91;130049;1101;22509;-60
2021/04/30 04:54:33;;;;;;;10.00;6.00;;;;;;;12.90;62.35;99089.47;129906;1101;22562;-59
2021/04/30 04:57:00;;;;;;;9.18;5.60;;;;;;;13.01;62.32;99084.73;130039;1101;22581;-60
2021/04/30 04:59:28;;;;;;;9.03;5.85;;;;;;;13.08;61.59;99082.52;129937;1101;22597;-60
2021/04/30 05:01:56;;;;;;;7.20;5.88;;;;;;;13.17;61.67;99090.95;129994;1101;22582;-60
2021/04/30 05:04:24;;;;;;;9.55;5.45;;;;;;;13.21;61.45;99087.36;129999;1101;22616;-59
2021/04/30 05:06:52;;;;;;;9.65;5.60;;;;;;;13.27;61.11;99088.16;130014;1100;22568;-59
2021/04/30 05:09:22;;;;;;;23.18;7.35;;;;;;;13.29;61.40;99080.45;129980;1101;22688;-60
2021/04/30 05:11:50;;;;;;;10.58;6.20;;;;;;;13.31;60.95;99083.72;130017;1101;22497;-60
2021/04/30 05:14:19;;;;;;;8.80;6.13;;;;;;;13.33;60.85;99078.78;129982;1101;22595;-60
2021/04/30 05:17:06;;;;;;;13.58;6.43;;;;;;;13.34;60.97;99081.23;130035;1101;22770;-59
2021/04/30 05:19:34;;;;;;;16.23;7.40;;;;;;;13.35;61.37;99091.08;129953;1101;22643;-60
2021/04/30 05:22:05;;;;;;;18.60;6.03;;;;;;;13.37;61.17;99085.32;130052;1101;22557;-59
2021/04/30 05:24:34;;;;;;;10.95;6.03;;;;;;;13.41;60.99;99089.13;129974;1100;22571;-59
2021/04/30 05:27:06;;;;;;;10.38;6.60;;;;;;;13.41;61.36;99089.13;130000;1101;22570;-60
2021/04/30 05:29:34;;;;;;;10.58;6.00;;;;;;;13.40;61.55;99082.02;129963;1101;23104;-60
2021/04/30 05:32:02;;;;;;;15.10;7.00;;;;;;;13.42;61.53;99077.05;130030;1101;22583;-59
2021/04/30 05:34:35;;;;;;;9.80;5.98;;;;;;;13.43;61.51;99076.77;130022;1101;23647;-60
2021/04/30 05:37:03;;;;;;;12.68;5.60;;;;;;;13.41;61.54;99073.52;129993;1100;23323;-61
2021/04/30 05:39:31;;;;;;;9.40;6.15;;;;;;;13.41;61.57;99078.18;130023;1101;22567;-60
2021/04/30 05:41:59;;;;;;;15.05;7.00;;;;;;;13.40;61.66;99074.63;129973;1101;22609;-59
2021/04/30 05:44:27;;;;;;;11.20;6.68;;;;;;;13.41;61.80;99073.52;130030;1101;22699;-60
2021/04/30 05:46:55;;;;;;;17.75;6.40;;;;;;;13.41;62.11;99081.73;129954;1101;23343;-60
2021/04/30 05:49:24;;;;;;;11.73;5.73;;;;;;;13.40;61.66;99079.28;130011;1101;22557;-60
2021/04/30 05:51:51;;;;;;;14.70;6.65;;;;;;;13.40;61.95;99073.81;129964;1101;22611;-60
2021/04/30 05:54:20;;;;;;;12.25;6.88;;;;;;;13.41;61.58;99072.70;130004;1101;22576;-60
2021/04/30 05:56:48;;;;;;;15.60;6.65;;;;;;;13.45;62.50;99069.09;129902;1101;22591;-60
2021/04/30 05:59:16;;;;;;;10.73;7.45;;;;;;;13.49;62.68;99069.34;129965;1098;22670;-60
2021/04/30 06:01:44;;;;;;;9.23;6.15;;;;;;;13.53;62.31;99073.14;129933;1101;22514;-60
2021/04/30 06:04:11;;;;;;;31.23;8.03;;;;;;;13.58;62.65;99067.59;130326;1098;22581;-60
2021/04/30 06:06:40;;;;;;;12.43;6.98;;;;;;;13.64;62.50;99065.64;130359;1098;23114;-60
2021/04/30 06:09:08;;;;;;;10.38;6.53;;;;;;;13.68;62.61;99074.91;130367;1098;22563;-59
2021/04/30 06:11:36;;;;;;;10.83;6.08;;;;;;;13.74;62.65;99073.73;130311;1098;23352;-59
2021/04/30 06:14:04;;;;;;;22.78;6.98;;;;;;;13.82;63.02;99072.30;130344;1098;22532;-60
2021/04/30 06:16:32;;;;;;;13.80;7.38;;;;;;;13.93;63.39;99062.86;130027;1098;23262;-61
2021/04/30 06:19:01;;;;;;;9.20;6.63;;;;;;;14.04;62.85;99067.93;130343;1098;22498;-61
2021/04/30 06:21:29;;;;;;;10.03;6.53;;;;;;;14.12;62.09;99061.82;130326;1098;22632;-61
2021/04/30 06:23:57;;;;;;;10.53;6.13;;;;;;;14.16;61.72;99060.11;130298;1098;22532;-61
2021/04/30 06:26:25;;;;;;;15.45;7.03;;;;;;;14.21;61.94;99055.68;127983;1098;22739;-61
2021/04/30 06:28:53;;;;;;;13.30;7.15;;;;;;;14.23;61.33;99059.77;130256;1098;22601;-61
2021/04/30 06:31:22;;;;;;;19.25;7.95;;;;;;;14.26;61.80;99064.67;130322;1098;23318;-61
2021/04/30 06:33:51;;;;;;;18.68;6.80;;;;;;;14.31;61.60;99064.58;130328;1098;22556;-61
2021/04/30 06:36:19;;;;;;;16.73;6.65;;;;;;;14.36;61.36;99053.56;130322;1098;23476;-61
2021/04/30 06:38:48;;;;;;;14.68;7.40;;;;;;;14.41;61.71;99048.06;130298;1098;23323;-61
2021/04/30 06:41:16;;;;;;;23.33;7.68;;;;;;;14.47;62.09;99054.27;130366;1098;22676;-61
2021/04/30 06:43:44;;;;;;;10.50;6.33;;;;;;;14.56;61.73;99051.70;130307;1098;22516;-61
2021/04/30 06:46:12;;;;;;;12.95;6.43;;;;;;;14.62;61.31;99056.80;130347;1098;22524;-61
2021/04/30 06:48:42;;;;;;;10.05;6.50;;;;;;;14.65;61.40;99058.14;130277;1098;22538;-61
2021/04/30 06:51:10;;;;;;;16.77;7.53;;;;;;;14.65;60.71;99056.22;130331;1098;22511;-61
2021/04/30 06:53:37;;;;;;;9.10;6.53;;;;;;;14.66;61.07;99060.59;130305;1098;22647;-61
2021/04/30 06:56:05;;;;;;;11.78;6.48;;;;;;;14.67;61.31;99064.97;130340;1098;22611;-61
2021/04/30 06:58:33;;;;;;;16.20;6.38;;;;;;;14.69;60.96;99059.19;130280;1098;22541;-61
2021/04/30 07:01:01;;;;;;;8.53;6.63;;;;;;;14.73;61.43;99065.69;130331;1098;22513;-61
2021/04/30 07:03:29;;;;;;;23.80;7.45;;;;;;;14.79;61.59;99059.03;130284;1098;22521;-61
2021/04/30 07:06:03;;;;;;;13.80;7.40;;;;;;;14.88;61.95;99061.91;130314;1098;22574;-61
2021/04/30 07:08:31;;;;;;;11.18;7.63;;;;;;;14.98;61.65;99059.03;130309;1098;22569;-61
2021/04/30 07:11:00;;;;;;;15.33;6.58;;;;;;;15.06;61.07;99056.41;130329;1098;22546;-61
2021/04/30 07:13:29;;;;;;;14.17;6.50;;;;;;;15.11;60.74;99053.60;130295;1098;22625;-61
2021/04/30 07:15:57;;;;;;;13.28;7.13;;;;;;;15.19;60.94;99055.65;130318;1098;22542;-61
2021/04/30 07:18:28;;;;;;;13.58;7.13;;;;;;;15.26;60.79;99057.20;130324;1098;22550;-61
2021/04/30 07:20:55;;;;;;;15.88;8.65;;;;;;;15.30;60.78;99053.54;130297;1098;23133;-62
2021/04/30 07:23:24;;;;;;;35.88;8.90;;;;;;;15.36;60.53;99052.35;130336;1098;22591;-61
2021/04/30 07:25:53;;;;;;;18.48;7.73;;;;;;;15.41;60.04;99046.78;130332;1098;22751;-59
2021/04/30 07:28:20;;;;;;;11.83;6.88;;;;;;;15.44;60.17;99045.34;130372;1098;22506;-62
2021/04/30 07:30:49;;;;;;;12.20;7.23;;;;;;;15.47;60.11;99048.31;130311;1098;23474;-60
2021/04/30 07:33:16;;;;;;;38.63;8.95;;;;;;;15.52;60.78;99048.23;130334;1098;22678;-60
2021/04/30 07:35:45;;;;;;;15.98;7.73;;;;;;;15.59;60.20;99042.36;130328;1098;22589;-60
2021/04/30 07:38:14;;;;;;;12.10;7.75;;;;;;;15.64;60.37;99045.02;130361;1098;22522;-60
2021/04/30 07:40:44;;;;;;;13.43;7.95;;;;;;;15.68;60.05;99040.56;130335;1098;22593;-60
2021/04/30 07:43:14;;;;;;;18.10;8.10;;;;;;;15.73;59.97;99036.88;130330;1098;23129;-60
2021/04/30 07:45:43;;;;;;;48.00;9.58;;;;;;;15.77;60.35;99027.74;130309;1098;23442;-60
2021/04/30 07:48:12;;;;;;;12.60;7.55;;;;;;;15.83;60.12;99032.03;130393;1098;22517;-60
2021/04/30 07:50:40;;;;;;;19.28;9.00;;;;;;;15.90;60.03;99034.36;130330;1098;22574;-60
2021/04/30 07:53:08;;;;;;;8.55;6.40;;;;;;;15.94;59.98;99032.64;130336;1098;22542;-60
2021/04/30 07:55:36;;;;;;;21.30;8.60;;;;;;;15.98;59.78;99028.17;130314;1098;22570;-60
2021/04/30 07:58:04;;;;;;;23.38;7.83;;;;;;;16.02;59.48;99029.16;130371;1098;23597;-60
2021/04/30 08:00:32;;;;;;;23.30;8.55;;;;;;;16.09;60.27;99023.27;130358;1098;22814;-60
2021/04/30 08:03:01;;;;;;;15.18;8.48;;;;;;;16.17;60.13;99026.11;130402;1098;23418;-60
2021/04/30 08:05:29;;;;;;;18.30;8.75;;;;;;;16.26;60.00;99032.53;129933;1098;22491;-61
2021/04/30 08:08:00;;;;;;;11.05;7.55;;;;;;;16.35;59.51;99020.80;130305;1098;23395;-61
2021/04/30 08:10:28;;;;;;;11.83;7.25;;;;;;;16.44;59.63;99022.53;130345;1098;22530;-61
2021/04/30 08:12:56;;;;;;;14.25;7.28;;;;;;;16.54;59.77;99018.73;130319;1098;22518;-61
2021/04/30 08:15:24;;;;;;;12.68;7.35;;;;;;;16.63;59.40;99019.64;130339;1098;22532;-61
2021/04/30 08:17:52;;;;;;;11.58;7.35;;;;;;;16.72;59.24;99015.05;130293;1098;22556;-61
2021/04/30 08:20:20;;;;;;;20.70;7.43;;;;;;;16.81;59.14;99013.17;130395;1098;22639;-61
2021/04/30 08:22:48;;;;;;;12.03;7.83;;;;;;;16.89;58.99;99011.59;130357;1098;24736;-61
2021/04/30 08:25:16;;;;;;;35.53;7.75;;;;;;;16.96;59.16;99006.49;130394;1098;22680;-61
2021/04/30 08:27:45;;;;;;;14.13;7.00;;;;;;;17.05;58.96;99015.61;130309;1098;23499;-61
2021/04/30 08:30:14;;;;;;;38.58;9.05;;;;;;;17.15;59.13;99001.62;130374;1098;22544;-61
2021/04/30 08:32:42;;;;;;;17.83;7.28;;;;;;;17.26;59.13;98994.72;130342;1098;22533;-61
2021/04/30 08:35:10;;;;;;;14.48;6.88;;;;;;;17.38;58.84;98998.83;130361;1098;22620;-61
2021/04/30 08:37:38;;;;;;;16.33;7.05;;;;;;;17.46;58.53;98993.35;130324;1098;22567;-61
2021/04/30 08:40:06;;;;;;;12.93;6.87;;;;;;;17.54;58.56;98992.60;130415;1098;23181;-61
2021/04/30 08:42:34;;;;;;;13.28;7.88;;;;;;;17.61;57.66;98990.19;130021;1098;22600;-61
2021/04/30 08:45:06;;;;;;;11.20;7.23;;;;;;;17.66;57.84;98986.52;130355;1098;22534;-61
2021/04/30 08:47:36;;;;;;;11.05;7.58;;;;;;;17.69;57.26;98987.84;130345;1098;22550;-61
2021/04/30 08:50:04;;;;;;;12.88;6.88;;;;;;;17.71;57.02;98983.64;130385;1098;22559;-61
2021/04/30 08:52:33;;;;;;;9.58;6.05;;;;;;;17.74;57.12;98974.74;130295;1098;22554;-61
2021/04/30 08:55:04;;;;;;;17.60;7.28;;;;;;;17.78;56.80;98974.89;130074;1098;23669;-61
2021/04/30 08:58:10;;;;;;;16.90;7.50;;;;;;;17.80;57.15;98978.15;125529;1090;26024;-60
2021/04/30 09:00:38;;;;;;;8.73;6.15;;;;;;;17.84;56.57;98973.63;125335;1096;25829;-60
2021/04/30 09:03:10;;;;;;;10.03;6.85;;;;;;;17.85;57.01;98969.75;125375;1101;23335;-60
2021/04/30 09:05:41;;;;;;;13.10;7.28;;;;;;;17.86;56.47;98968.62;130017;1101;22597;-61
2021/04/30 09:08:10;;;;;;;19.70;6.93;;;;;;;17.88;57.56;98978.20;129741;1101;22631;-61
2021/04/30 09:10:41;;;;;;;12.10;6.43;;;;;;;17.95;56.78;98963.94;130052;1100;23263;-61
2021/04/30 09:13:13;;;;;;;8.48;6.15;;;;;;;18.00;56.53;98964.61;130017;1101;22574;-61
2021/04/30 09:15:43;;;;;;;20.68;7.80;;;;;;;18.05;56.35;98965.56;128945;1101;22835;-61
2021/04/30 09:18:21;;;;;;;10.35;5.78;;;;;;;18.10;56.52;98962.67;129940;1101;22657;-62
2021/04/30 09:20:50;;;;;;;42.28;9.50;;;;;;;18.17;56.15;98955.57;129954;1101;22556;-62
2021/04/30 09:23:41;;;;;;;;;;;;;;;18.24;55.41;98966.11;129983;1101;22575;-62
2021/04/30 09:26:28;;;;;;;8.73;5.80;;;;;;;18.27;55.32;98959.95;129981;1101;21808;-62
2021/04/30 09:29:10;;;;;;;15.53;6.25;;;;;;;18.33;54.96;98964.16;129935;1101;22611;-62
2021/04/30 09:31:42;;;;;;;11.80;5.55;;;;;;;18.35;54.15;98957.19;129990;1101;22565;-62
2021/04/30 09:34:29;;;;;;;12.68;5.70;;;;;;;18.38;54.27;98956.55;129967;1101;23557;-62
2021/04/30 09:37:14;;;;;;;15.50;6.05;;;;;;;18.44;54.00;98953.65;129943;1101;22727;-62
2021/04/30 09:39:54;;;;;;;32.98;7.23;;;;;;;18.48;54.53;98957.36;129979;1101;22571;-62
2021/04/30 09:42:28;;;;;;;15.40;6.43;;;;;;;18.52;54.11;98959.16;129901;1101;22788;-62
2021/04/30 09:44:58;;;;;;;21.85;6.55;;;;;;;18.57;53.59;98953.49;129992;1101;22550;-62
2021/04/30 09:47:30;;;;;;;12.58;5.63;;;;;;;18.59;53.38;98944.92;129962;1101;23787;-62
2021/04/30 09:50:21;;;;;;;12.88;5.73;;;;;;;18.61;53.34;98948.95;129916;1101;22565;-61
2021/04/30 09:52:56;;;;;;;10.73;5.58;;;;;;;18.61;53.24;98946.20;129925;1101;22634;-62
2021/04/30 09:55:50;;;;;;;12.40;6.05;;;;;;;18.63;53.30;98945.88;129926;1101;23634;-62
2021/04/30 09:58:18;;;;;;;10.95;4.95;;;;;;;18.62;52.96;98942.30;129948;1101;22580;-62
2021/04/30 10:00:48;;;;;;;12.15;5.28;;;;;;;18.63;52.63;98941.17;129966;1101;23768;-62
2021/04/30 10:03:18;;;;;;;12.23;4.95;;;;;;;18.64;52.74;98931.75;129949;1101;23044;-62
2021/04/30 10:06:01;;;;;;;11.60;5.38;;;;;;;18.67;53.33;98933.06;129929;1101;22538;-62
2021/04/30 10:08:30;;;;;;;15.03;5.88;;;;;;;18.72;53.81;98927.38;129994;1101;22538;-62
2021/04/30 10:10:58;;;;;;;15.00;6.38;;;;;;;18.81;54.46;98916.32;129962;1101;22676;-62
2021/04/30 10:13:39;;;;;;;15.13;6.18;;;;;;;18.90;53.29;98912.40;130005;1101;23230;-62
2021/04/30 10:16:07;;;;;;;27.75;6.53;;;;;;;18.98;53.04;98910.78;128064;1101;22777;-62
2021/04/30 10:18:35;;;;;;;9.75;5.18;;;;;;;19.04;52.36;98912.23;129979;1101;23083;-62
2021/04/30 10:21:04;;;;;;;18.63;5.73;;;;;;;19.10;52.45;98905.38;129866;1101;22605;-62
2021/04/30 10:23:34;;;;;;;22.83;6.00;;;;;;;19.15;51.75;98913.50;129900;1101;22601;-62
2021/04/30 10:26:02;;;;;;;11.15;5.68;;;;;;;19.21;52.04;98914.12;129934;1101;22650;-62
2021/04/30 10:28:31;;;;;;;12.75;5.45;;;;;;;19.26;52.74;98906.47;129967;1101;23094;-62
2021/04/30 10:31:07;;;;;;;13.93;4.75;;;;;;;19.32;52.23;98899.64;129959;1101;22654;-62
2021/04/30 10:33:43;;;;;;;11.55;4.78;;;;;;;19.40;51.86;98903.50;129638;1100;22708;-62
2021/04/30 10:36:23;;;;;;;10.60;5.23;;;;;;;19.47;51.95;98900.23;129968;1101;23595;-62
2021/04/30 10:38:56;;;;;;;12.20;5.73;;;;;;;19.53;51.25;98901.69;129861;1101;22573;-62
2021/04/30 10:41:34;;;;;;;20.03;5.00;;;;;;;19.58;51.92;98893.22;129989;1101;22540;-62
2021/04/30 10:44:35;;;;;;;9.98;5.13;;;;;;;19.65;52.24;98886.01;129972;1101;22626;-62
2021/04/30 10:47:12;;;;;;;7.70;5.00;;;;;;;19.74;52.20;98894.27;129898;1101;22750;-63
2021/04/30 10:49:43;;;;;;;9.30;4.80;;;;;;;19.85;51.62;98886.40;129996;1101;22572;-62
2021/04/30 10:52:30;;;;;;;13.43;6.08;;;;;;;19.92;51.44;98886.66;129918;1101;23318;-63
2021/04/30 10:55:12;;;;;;;9.88;4.68;;;;;;;19.98;51.17;98874.28;130003;1101;22619;-62
2021/04/30 10:57:50;;;;;;;11.75;5.33;;;;;;;20.00;51.14;98877.52;129939;1101;22546;-62
2021/04/30 11:00:24;;;;;;;46.30;7.00;;;;;;;20.04;51.03;98882.05;129968;1101;22667;-62
2021/04/30 11:03:14;;;;;;;12.30;5.43;;;;;;;20.11;50.43;98884.27;129875;1101;23102;-62
2021/04/30 11:05:51;;;;;;;8.43;4.13;;;;;;;20.17;50.10;98882.93;129986;1101;22614;-62
2021/04/30 11:08:19;;;;;;;;;;;;;;;20.21;49.88;98874.75;129986;1101;22550;-62
2021/04/30 11:10:47;;;;;;;21.77;4.80;;;;;;;20.25;49.93;98881.23;129854;1101;21272;-62
2021/04/30 11:13:17;;;;;;;17.83;5.48;;;;;;;20.29;49.22;98873.89;129915;1101;22545;-62
2021/04/30 11:15:46;;;;;;;26.55;5.38;;;;;;;20.28;49.29;98866.73;130003;1101;22679;-62
2021/04/30 11:18:21;;;;;;;23.10;5.78;;;;;;;20.25;49.40;98868.21;129977;1101;23062;-62
2021/04/30 11:21:06;;;;;;;8.60;4.40;;;;;;;20.24;49.68;98861.05;130007;1101;22581;-62
2021/04/30 11:23:47;;;;;;;21.18;5.40;;;;;;;20.27;49.56;98876.17;129828;1101;22619;-63
2021/04/30 11:26:16;;;;;;;9.75;4.45;;;;;;;20.33;49.75;98863.77;128013;1096;22756;-60
2021/04/30 11:28:44;;;;;;;7.48;4.38;;;;;;;20.37;49.14;98859.19;129986;1101;23512;-61
2021/04/30 11:31:16;;;;;;;9.70;5.50;;;;;;;20.41;49.48;98865.67;130003;1101;22661;-61
2021/04/30 11:33:46;;;;;;;16.10;5.38;;;;;;;20.45;49.35;98856.36;129969;1101;22589;-60